sensor_id;sensor_type;location;lat;lon;timestamp;temperature;humidity
24250;DHT22;12379;49.820;8.648;2023-04-01T00:00:20;10.80;99.90
24250;DHT22;12379;49.820;8.648;2023-04-01T00:02:46;10.90;99.90
24250;DHT22;12379;49.820;8.648;2023-04-01T00:05:11;10.90;99.90
24250;DHT22;12379;49.820;8.648;2023-04-01T00:07:38;10.90;99.90
24250;DHT22;12379;49.820;8.648;2023-04-01T00:10:08;10.90;99.90
24250;DHT22;12379;49.820;8.648;2023-04-01T00:12:34;10.90;99.90
24250;DHT22;12379;49.820;8.648;2023-04-01T00:15:01;10.90;99.90
24250;DHT22;12379;49.820;8.648;2023-04-01T00:17:26;10.80;99.90
24250;DHT22;12379;49.820;8.648;2023-04-01T00:19:54;10.80;99.90
24250;DHT22;12379;49.820;8.648;2023-04-01T00:22:20;10.90;99.90
24250;DHT22;12379;49.820;8.648;2023-04-01T00:24:46;10.90;99.90
24250;DHT22;12379;49.820;8.648;2023-04-01T00:27:12;10.90;99.90
24250;DHT22;12379;49.820;8.648;2023-04-01T00:29:37;10.90;99.90
24250;DHT22;12379;49.820;8.648;2023-04-01T00:32:03;10.90;99.90
24250;DHT22;12379;49.820;8.648;2023-04-01T00:34:28;10.80;99.90
24250;DHT22;12379;49.820;8.648;2023-04-01T00:36:54;10.80;99.90
24250;DHT22;12379;49.820;8.648;2023-04-01T00:39:20;10.70;99.90
24250;DHT22;12379;49.820;8.648;2023-04-01T00:41:46;10.80;99.90
24250;DHT22;12379;49.820;8.648;2023-04-01T00:44:18;10.80;99.90
24250;DHT22;12379;49.820;8.648;2023-04-01T00:46:44;10.80;99.90
24250;DHT22;12379;49.820;8.648;2023-04-01T00:49:09;10.70;99.90
24250;DHT22;12379;49.820;8.648;2023-04-01T00:51:37;10.80;99.90
24250;DHT22;12379;49.820;8.648;2023-04-01T00:54:06;10.80;99.90
24250;DHT22;12379;49.820;8.648;2023-04-01T00:59:25;10.80;99.90
24250;DHT22;12379;49.820;8.648;2023-04-01T01:01:50;10.80;99.90
24250;DHT22;12379;49.820;8.648;2023-04-01T01:04:27;10.80;99.90
24250;DHT22;12379;49.820;8.648;2023-04-01T01:09:57;10.80;99.90
24250;DHT22;12379;49.820;8.648;2023-04-01T01:21:24;10.90;99.90
24250;DHT22;12379;49.820;8.648;2023-04-01T01:26:53;10.90;99.90
24250;DHT22;12379;49.820;8.648;2023-04-01T01:37:34;10.90;99.90
24250;DHT22;12379;49.820;8.648;2023-04-01T01:40:03;10.90;99.90
24250;DHT22;12379;49.820;8.648;2023-04-01T01:42:31;10.90;99.90
24250;DHT22;12379;49.820;8.648;2023-04-01T01:44:59;10.80;99.90
24250;DHT22;12379;49.820;8.648;2023-04-01T01:47:27;10.80;99.90
24250;DHT22;12379;49.820;8.648;2023-04-01T01:49:54;10.90;99.90
24250;DHT22;12379;49.820;8.648;2023-04-01T01:52:23;10.90;99.90
24250;DHT22;12379;49.820;8.648;2023-04-01T01:54:50;10.90;99.90
24250;DHT22;12379;49.820;8.648;2023-04-01T01:57:18;10.90;99.90
24250;DHT22;12379;49.820;8.648;2023-04-01T01:59:46;10.90;99.90
24250;DHT22;12379;49.820;8.648;2023-04-01T02:02:13;11.00;99.90
24250;DHT22;12379;49.820;8.648;2023-04-01T02:04:42;11.00;99.90
24250;DHT22;12379;49.820;8.648;2023-04-01T02:07:20;10.90;99.90
24250;DHT22;12379;49.820;8.648;2023-04-01T02:09:47;10.80;99.90
24250;DHT22;12379;49.820;8.648;2023-04-01T02:12:15;10.80;99.90
24250;DHT22;12379;49.820;8.648;2023-04-01T02:17:14;10.80;99.90
24250;DHT22;12379;49.820;8.648;2023-04-01T02:19:50;10.80;99.90
24250;DHT22;12379;49.820;8.648;2023-04-01T02:22:52;10.70;99.90
24250;DHT22;12379;49.820;8.648;2023-04-01T02:25:28;10.70;99.90
24250;DHT22;12379;49.820;8.648;2023-04-01T02:27:56;10.70;99.90
24250;DHT22;12379;49.820;8.648;2023-04-01T02:30:23;10.70;99.90
24250;DHT22;12379;49.820;8.648;2023-04-01T02:32:50;10.60;99.90
24250;DHT22;12379;49.820;8.648;2023-04-01T02:35:17;10.60;99.90
24250;DHT22;12379;49.820;8.648;2023-04-01T02:37:44;10.60;99.90
24250;DHT22;12379;49.820;8.648;2023-04-01T02:40:13;10.50;99.90
24250;DHT22;12379;49.820;8.648;2023-04-01T02:42:39;10.60;99.90
24250;DHT22;12379;49.820;8.648;2023-04-01T02:45:06;10.60;99.90
24250;DHT22;12379;49.820;8.648;2023-04-01T02:47:32;10.60;99.90
24250;DHT22;12379;49.820;8.648;2023-04-01T02:49:57;10.60;99.90
24250;DHT22;12379;49.820;8.648;2023-04-01T02:52:30;10.60;99.90
24250;DHT22;12379;49.820;8.648;2023-04-01T02:54:57;10.60;99.90
24250;DHT22;12379;49.820;8.648;2023-04-01T02:57:23;10.60;99.90
24250;DHT22;12379;49.820;8.648;2023-04-01T02:59:49;10.50;99.90
24250;DHT22;12379;49.820;8.648;2023-04-01T03:02:15;10.60;99.90
24250;DHT22;12379;49.820;8.648;2023-04-01T03:04:40;10.70;99.90
24250;DHT22;12379;49.820;8.648;2023-04-01T03:07:06;10.60;99.90
24250;DHT22;12379;49.820;8.648;2023-04-01T03:09:32;10.60;99.90
24250;DHT22;12379;49.820;8.648;2023-04-01T03:11:58;10.60;99.90
24250;DHT22;12379;49.820;8.648;2023-04-01T03:14:23;10.50;99.90
24250;DHT22;12379;49.820;8.648;2023-04-01T03:16:49;10.50;99.90
24250;DHT22;12379;49.820;8.648;2023-04-01T03:19:14;10.40;99.90
24250;DHT22;12379;49.820;8.648;2023-04-01T03:21:40;10.40;99.90
24250;DHT22;12379;49.820;8.648;2023-04-01T03:24:06;10.40;99.90
24250;DHT22;12379;49.820;8.648;2023-04-01T03:26:31;10.30;99.90
24250;DHT22;12379;49.820;8.648;2023-04-01T03:28:57;10.30;99.90
24250;DHT22;12379;49.820;8.648;2023-04-01T03:31:23;10.40;99.90
24250;DHT22;12379;49.820;8.648;2023-04-01T03:33:49;10.40;99.90
24250;DHT22;12379;49.820;8.648;2023-04-01T03:36:15;10.40;99.90
24250;DHT22;12379;49.820;8.648;2023-04-01T03:38:41;10.30;99.90
24250;DHT22;12379;49.820;8.648;2023-04-01T03:41:11;10.30;99.90
24250;DHT22;12379;49.820;8.648;2023-04-01T03:43:36;10.30;99.90
24250;DHT22;12379;49.820;8.648;2023-04-01T03:46:02;10.30;99.90
24250;DHT22;12379;49.820;8.648;2023-04-01T03:48:27;10.30;99.90
24250;DHT22;12379;49.820;8.648;2023-04-01T03:50:53;10.30;99.90
24250;DHT22;12379;49.820;8.648;2023-04-01T03:53:19;10.30;99.90
24250;DHT22;12379;49.820;8.648;2023-04-01T03:55:45;10.30;99.90
24250;DHT22;12379;49.820;8.648;2023-04-01T03:58:10;10.30;99.90
24250;DHT22;12379;49.820;8.648;2023-04-01T04:00:36;10.30;99.90
24250;DHT22;12379;49.820;8.648;2023-04-01T04:03:02;10.40;99.90
24250;DHT22;12379;49.820;8.648;2023-04-01T04:05:28;10.40;99.90
24250;DHT22;12379;49.820;8.648;2023-04-01T04:07:53;10.40;99.90
24250;DHT22;12379;49.820;8.648;2023-04-01T04:10:20;10.30;99.90
24250;DHT22;12379;49.820;8.648;2023-04-01T04:12:49;10.30;99.90
24250;DHT22;12379;49.820;8.648;2023-04-01T04:15:15;10.40;99.90
24250;DHT22;12379;49.820;8.648;2023-04-01T04:17:41;10.40;99.90
24250;DHT22;12379;49.820;8.648;2023-04-01T04:20:07;10.40;99.90
24250;DHT22;12379;49.820;8.648;2023-04-01T04:22:33;10.50;99.90
24250;DHT22;12379;49.820;8.648;2023-04-01T04:24:59;10.50;99.90
24250;DHT22;12379;49.820;8.648;2023-04-01T04:27:24;10.50;99.90
24250;DHT22;12379;49.820;8.648;2023-04-01T04:29:50;10.40;99.90
24250;DHT22;12379;49.820;8.648;2023-04-01T04:32:15;10.40;99.90
24250;DHT22;12379;49.820;8.648;2023-04-01T04:34:41;10.40;99.90
24250;DHT22;12379;49.820;8.648;2023-04-01T04:37:06;10.40;99.90
24250;DHT22;12379;49.820;8.648;2023-04-01T04:39:32;10.40;99.90
24250;DHT22;12379;49.820;8.648;2023-04-01T04:41:57;10.50;99.90
24250;DHT22;12379;49.820;8.648;2023-04-01T04:44:23;10.50;99.90
24250;DHT22;12379;49.820;8.648;2023-04-01T04:46:48;10.50;99.90
24250;DHT22;12379;49.820;8.648;2023-04-01T04:49:14;10.50;99.90
24250;DHT22;12379;49.820;8.648;2023-04-01T04:51:40;10.60;99.90
24250;DHT22;12379;49.820;8.648;2023-04-01T04:54:06;10.50;99.90
24250;DHT22;12379;49.820;8.648;2023-04-01T04:56:32;10.40;99.90
24250;DHT22;12379;49.820;8.648;2023-04-01T04:58:58;10.50;99.90
24250;DHT22;12379;49.820;8.648;2023-04-01T05:01:24;10.40;99.90
24250;DHT22;12379;49.820;8.648;2023-04-01T05:03:50;10.40;99.90
24250;DHT22;12379;49.820;8.648;2023-04-01T05:06:17;10.40;99.90
24250;DHT22;12379;49.820;8.648;2023-04-01T05:08:44;10.50;99.90
24250;DHT22;12379;49.820;8.648;2023-04-01T05:11:13;10.40;99.90
24250;DHT22;12379;49.820;8.648;2023-04-01T05:13:39;10.50;99.90
24250;DHT22;12379;49.820;8.648;2023-04-01T05:16:11;10.40;99.90
24250;DHT22;12379;49.820;8.648;2023-04-01T05:18:37;10.40;99.90
24250;DHT22;12379;49.820;8.648;2023-04-01T05:21:03;10.30;99.90
24250;DHT22;12379;49.820;8.648;2023-04-01T05:23:31;10.40;99.90
24250;DHT22;12379;49.820;8.648;2023-04-01T05:25:57;10.50;99.90
24250;DHT22;12379;49.820;8.648;2023-04-01T05:28:23;10.40;99.90
24250;DHT22;12379;49.820;8.648;2023-04-01T05:30:48;10.40;99.90
24250;DHT22;12379;49.820;8.648;2023-04-01T05:33:14;10.50;99.90
24250;DHT22;12379;49.820;8.648;2023-04-01T05:35:40;10.50;99.90
24250;DHT22;12379;49.820;8.648;2023-04-01T05:38:06;10.50;99.90
24250;DHT22;12379;49.820;8.648;2023-04-01T05:40:32;10.60;99.90
24250;DHT22;12379;49.820;8.648;2023-04-01T05:42:59;10.40;99.90
24250;DHT22;12379;49.820;8.648;2023-04-01T05:45:25;10.50;99.90
24250;DHT22;12379;49.820;8.648;2023-04-01T05:47:51;10.40;99.90
24250;DHT22;12379;49.820;8.648;2023-04-01T05:50:17;10.40;99.90
24250;DHT22;12379;49.820;8.648;2023-04-01T05:52:42;10.60;99.90
24250;DHT22;12379;49.820;8.648;2023-04-01T05:55:09;10.60;99.90
24250;DHT22;12379;49.820;8.648;2023-04-01T05:57:35;10.50;99.90
24250;DHT22;12379;49.820;8.648;2023-04-01T06:00:00;10.50;99.90
24250;DHT22;12379;49.820;8.648;2023-04-01T06:02:26;10.50;99.90
24250;DHT22;12379;49.820;8.648;2023-04-01T06:05:17;10.40;99.90
24250;DHT22;12379;49.820;8.648;2023-04-01T06:07:43;10.60;99.90
24250;DHT22;12379;49.820;8.648;2023-04-01T06:10:17;10.50;99.90
24250;DHT22;12379;49.820;8.648;2023-04-01T06:15:29;10.50;99.90
24250;DHT22;12379;49.820;8.648;2023-04-01T06:20:49;10.50;99.90
24250;DHT22;12379;49.820;8.648;2023-04-01T06:23:29;10.50;99.90
24250;DHT22;12379;49.820;8.648;2023-04-01T06:26:20;10.60;99.90
24250;DHT22;12379;49.820;8.648;2023-04-01T06:28:58;10.60;99.90
24250;DHT22;12379;49.820;8.648;2023-04-01T06:34:21;10.50;99.90
24250;DHT22;12379;49.820;8.648;2023-04-01T06:47:41;10.60;99.90
24250;DHT22;12379;49.820;8.648;2023-04-01T06:53:17;10.50;99.90
24250;DHT22;12379;49.820;8.648;2023-04-01T06:56:11;10.60;99.90
24250;DHT22;12379;49.820;8.648;2023-04-01T06:58:42;10.50;99.90
24250;DHT22;12379;49.820;8.648;2023-04-01T07:01:14;10.50;99.90
24250;DHT22;12379;49.820;8.648;2023-04-01T07:03:49;10.60;99.90
24250;DHT22;12379;49.820;8.648;2023-04-01T07:06:50;10.50;99.90
24250;DHT22;12379;49.820;8.648;2023-04-01T07:09:20;10.50;99.90
24250;DHT22;12379;49.820;8.648;2023-04-01T07:11:47;10.50;99.90
24250;DHT22;12379;49.820;8.648;2023-04-01T07:14:29;10.40;99.90
24250;DHT22;12379;49.820;8.648;2023-04-01T07:17:17;10.40;99.90
24250;DHT22;12379;49.820;8.648;2023-04-01T07:19:52;10.40;99.90
24250;DHT22;12379;49.820;8.648;2023-04-01T07:22:33;10.50;99.90
24250;DHT22;12379;49.820;8.648;2023-04-01T07:25:12;10.60;99.90
24250;DHT22;12379;49.820;8.648;2023-04-01T07:27:38;10.60;99.90
24250;DHT22;12379;49.820;8.648;2023-04-01T07:30:14;10.80;99.90
24250;DHT22;12379;49.820;8.648;2023-04-01T07:38:41;10.80;99.90
24250;DHT22;12379;49.820;8.648;2023-04-01T07:41:31;10.80;99.90
24250;DHT22;12379;49.820;8.648;2023-04-01T07:44:25;11.00;99.90
24250;DHT22;12379;49.820;8.648;2023-04-01T07:47:08;11.00;99.90
24250;DHT22;12379;49.820;8.648;2023-04-01T07:49:40;11.20;99.90
24250;DHT22;12379;49.820;8.648;2023-04-01T07:55:23;11.20;99.90
24250;DHT22;12379;49.820;8.648;2023-04-01T08:01:08;11.20;99.90
24250;DHT22;12379;49.820;8.648;2023-04-01T08:04:01;11.20;99.90
24250;DHT22;12379;49.820;8.648;2023-04-01T08:06:32;11.30;99.90
24250;DHT22;12379;49.820;8.648;2023-04-01T08:09:20;11.30;99.90
24250;DHT22;12379;49.820;8.648;2023-04-01T08:23:19;11.40;99.90
24250;DHT22;12379;49.820;8.648;2023-04-01T08:26:23;11.40;99.90
24250;DHT22;12379;49.820;8.648;2023-04-01T08:29:16;11.40;99.90
24250;DHT22;12379;49.820;8.648;2023-04-01T08:34:47;11.30;99.90
24250;DHT22;12379;49.820;8.648;2023-04-01T08:37:21;11.10;99.90
24250;DHT22;12379;49.820;8.648;2023-04-01T08:39:56;10.80;99.90
24250;DHT22;12379;49.820;8.648;2023-04-01T08:54:29;10.90;99.90
24250;DHT22;12379;49.820;8.648;2023-04-01T08:59:55;10.90;99.90
24250;DHT22;12379;49.820;8.648;2023-04-01T09:02:43;11.10;99.90
24250;DHT22;12379;49.820;8.648;2023-04-01T09:16:53;11.60;99.90
24250;DHT22;12379;49.820;8.648;2023-04-01T09:19:47;11.90;99.90
24250;DHT22;12379;49.820;8.648;2023-04-01T09:22:29;11.80;99.90
24250;DHT22;12379;49.820;8.648;2023-04-01T09:28:07;11.50;99.90
24250;DHT22;12379;49.820;8.648;2023-04-01T09:34:10;11.20;99.90
24250;DHT22;12379;49.820;8.648;2023-04-01T09:36:45;11.20;99.90
24250;DHT22;12379;49.820;8.648;2023-04-01T09:44:19;11.00;99.90
24250;DHT22;12379;49.820;8.648;2023-04-01T09:55:37;10.90;99.90
24250;DHT22;12379;49.820;8.648;2023-04-01T10:03:58;10.70;99.90
24250;DHT22;12379;49.820;8.648;2023-04-01T10:12:29;10.50;99.90
24250;DHT22;12379;49.820;8.648;2023-04-01T10:24:30;10.90;99.90
24250;DHT22;12379;49.820;8.648;2023-04-01T10:29:34;11.00;99.90
24250;DHT22;12379;49.820;8.648;2023-04-01T10:37:27;11.30;99.90
24250;DHT22;12379;49.820;8.648;2023-04-01T10:40:31;11.30;99.90
24250;DHT22;12379;49.820;8.648;2023-04-01T10:54:48;11.50;99.90
24250;DHT22;12379;49.820;8.648;2023-04-01T10:57:33;11.40;99.90
24250;DHT22;12379;49.820;8.648;2023-04-01T11:17:01;11.40;99.90
24250;DHT22;12379;49.820;8.648;2023-04-01T11:20:02;11.40;99.90
24250;DHT22;12379;49.820;8.648;2023-04-01T11:33:43;11.30;99.90
24250;DHT22;12379;49.820;8.648;2023-04-01T11:36:33;11.50;99.90
24250;DHT22;12379;49.820;8.648;2023-04-01T11:39:35;11.50;99.90
24250;DHT22;12379;49.820;8.648;2023-04-01T11:44:58;11.30;99.90
24250;DHT22;12379;49.820;8.648;2023-04-01T11:53:23;11.60;99.90
24250;DHT22;12379;49.820;8.648;2023-04-01T12:04:36;11.10;99.90
24250;DHT22;12379;49.820;8.648;2023-04-01T12:13:04;11.10;99.90
24250;DHT22;12379;49.820;8.648;2023-04-01T12:18:48;11.30;99.90
24250;DHT22;12379;49.820;8.648;2023-04-01T12:24:46;11.60;99.90
24250;DHT22;12379;49.820;8.648;2023-04-01T12:30:14;11.80;99.90
24250;DHT22;12379;49.820;8.648;2023-04-01T12:33:00;11.70;99.90
24250;DHT22;12379;49.820;8.648;2023-04-01T12:41:07;11.80;99.90
24250;DHT22;12379;49.820;8.648;2023-04-01T12:43:53;11.90;99.90
24250;DHT22;12379;49.820;8.648;2023-04-01T12:46:46;12.00;99.90
24250;DHT22;12379;49.820;8.648;2023-04-01T12:49:34;11.80;99.90
24250;DHT22;12379;49.820;8.648;2023-04-01T12:52:23;11.90;99.90
24250;DHT22;12379;49.820;8.648;2023-04-01T13:00:56;11.80;99.90
24250;DHT22;12379;49.820;8.648;2023-04-01T13:06:15;11.80;99.90
24250;DHT22;12379;49.820;8.648;2023-04-01T13:17:13;11.60;99.90
24250;DHT22;12379;49.820;8.648;2023-04-01T13:28:06;11.40;99.90
24250;DHT22;12379;49.820;8.648;2023-04-01T13:33:25;11.50;99.90
24250;DHT22;12379;49.820;8.648;2023-04-01T13:36:02;11.70;99.90
24250;DHT22;12379;49.820;8.648;2023-04-01T13:41:45;11.60;99.90
24250;DHT22;12379;49.820;8.648;2023-04-01T13:44:38;11.60;99.90
24250;DHT22;12379;49.820;8.648;2023-04-01T13:47:29;11.50;99.90
24250;DHT22;12379;49.820;8.648;2023-04-01T13:50:06;11.60;99.90
24250;DHT22;12379;49.820;8.648;2023-04-01T13:58:13;11.50;99.90
24250;DHT22;12379;49.820;8.648;2023-04-01T14:15:55;12.20;99.90
24250;DHT22;12379;49.820;8.648;2023-04-01T14:21:19;12.00;99.90
24250;DHT22;12379;49.820;8.648;2023-04-01T14:27:12;11.90;99.90
24250;DHT22;12379;49.820;8.648;2023-04-01T14:43:54;11.70;99.90
24250;DHT22;12379;49.820;8.648;2023-04-01T14:49:32;11.80;99.90
24250;DHT22;12379;49.820;8.648;2023-04-01T14:52:25;11.70;99.90
24250;DHT22;12379;49.820;8.648;2023-04-01T14:54:53;11.60;99.90
24250;DHT22;12379;49.820;8.648;2023-04-01T14:57:30;11.70;99.90
24250;DHT22;12379;49.820;8.648;2023-04-01T15:00:18;11.80;99.90
24250;DHT22;12379;49.820;8.648;2023-04-01T15:03:07;11.80;99.90
24250;DHT22;12379;49.820;8.648;2023-04-01T15:17:19;12.00;99.90
24250;DHT22;12379;49.820;8.648;2023-04-01T15:29:24;11.60;99.90
24250;DHT22;12379;49.820;8.648;2023-04-01T15:34:57;11.70;99.90
24250;DHT22;12379;49.820;8.648;2023-04-01T15:37:38;11.90;99.90
24250;DHT22;12379;49.820;8.648;2023-04-01T15:40:31;11.90;99.90
24250;DHT22;12379;49.820;8.648;2023-04-01T15:43:40;12.00;99.90
24250;DHT22;12379;49.820;8.648;2023-04-01T15:54:25;11.90;99.90
24250;DHT22;12379;49.820;8.648;2023-04-01T16:05:55;11.80;99.90
24250;DHT22;12379;49.820;8.648;2023-04-01T16:19:09;11.70;99.90
24250;DHT22;12379;49.820;8.648;2023-04-01T16:32:56;11.70;99.90
24250;DHT22;12379;49.820;8.648;2023-04-01T16:38:20;11.60;99.90
24250;DHT22;12379;49.820;8.648;2023-04-01T16:41:19;11.60;99.90
24250;DHT22;12379;49.820;8.648;2023-04-01T16:43:58;11.60;99.90
24250;DHT22;12379;49.820;8.648;2023-04-01T16:54:56;11.50;99.90
24250;DHT22;12379;49.820;8.648;2023-04-01T16:57:42;11.40;99.90
24250;DHT22;12379;49.820;8.648;2023-04-01T17:00:26;11.40;99.90
24250;DHT22;12379;49.820;8.648;2023-04-01T17:02:58;11.40;99.90
24250;DHT22;12379;49.820;8.648;2023-04-01T17:10:53;11.40;99.90
24250;DHT22;12379;49.820;8.648;2023-04-01T17:13:40;11.40;99.90
24250;DHT22;12379;49.820;8.648;2023-04-01T17:22:27;11.40;99.90
24250;DHT22;12379;49.820;8.648;2023-04-01T17:38:20;11.30;99.90
24250;DHT22;12379;49.820;8.648;2023-04-01T17:46:24;11.20;99.90
24250;DHT22;12379;49.820;8.648;2023-04-01T17:57:56;11.20;99.90
24250;DHT22;12379;49.820;8.648;2023-04-01T18:06:11;11.20;99.90
24250;DHT22;12379;49.820;8.648;2023-04-01T18:11:54;11.10;99.90
24250;DHT22;12379;49.820;8.648;2023-04-01T18:14:39;11.00;99.90
24250;DHT22;12379;49.820;8.648;2023-04-01T18:17:20;11.00;99.90
24250;DHT22;12379;49.820;8.648;2023-04-01T18:20:09;11.10;99.90
24250;DHT22;12379;49.820;8.648;2023-04-01T18:22:48;11.10;99.90
24250;DHT22;12379;49.820;8.648;2023-04-01T18:25:38;11.00;99.90
24250;DHT22;12379;49.820;8.648;2023-04-01T18:36:57;10.90;99.90
24250;DHT22;12379;49.820;8.648;2023-04-01T18:39:37;10.80;99.90
24250;DHT22;12379;49.820;8.648;2023-04-01T18:42:27;10.80;99.90
24250;DHT22;12379;49.820;8.648;2023-04-01T18:45:26;10.70;99.90
24250;DHT22;12379;49.820;8.648;2023-04-01T18:50:57;10.70;99.90
24250;DHT22;12379;49.820;8.648;2023-04-01T18:53:48;10.70;99.90
24250;DHT22;12379;49.820;8.648;2023-04-01T19:10:37;10.70;99.90
24250;DHT22;12379;49.820;8.648;2023-04-01T19:23:34;10.70;99.90
24250;DHT22;12379;49.820;8.648;2023-04-01T19:26:13;10.70;99.90
24250;DHT22;12379;49.820;8.648;2023-04-01T19:29:39;10.70;99.90
24250;DHT22;12379;49.820;8.648;2023-04-01T19:32:14;10.80;99.90
24250;DHT22;12379;49.820;8.648;2023-04-01T19:44:16;10.70;99.90
24250;DHT22;12379;49.820;8.648;2023-04-01T19:46:51;10.60;99.90
24250;DHT22;12379;49.820;8.648;2023-04-01T19:54:44;10.60;99.90
24250;DHT22;12379;49.820;8.648;2023-04-01T20:11:14;10.70;99.90
24250;DHT22;12379;49.820;8.648;2023-04-01T20:14:13;10.60;99.90
24250;DHT22;12379;49.820;8.648;2023-04-01T20:16:53;10.60;99.90
24250;DHT22;12379;49.820;8.648;2023-04-01T20:19:39;10.60;99.90
24250;DHT22;12379;49.820;8.648;2023-04-01T20:24:51;10.50;99.90
24250;DHT22;12379;49.820;8.648;2023-04-01T20:27:20;10.60;99.90
24250;DHT22;12379;49.820;8.648;2023-04-01T20:35:35;10.60;99.90
24250;DHT22;12379;49.820;8.648;2023-04-01T20:41:25;10.50;99.90
24250;DHT22;12379;49.820;8.648;2023-04-01T20:44:13;10.50;99.90
24250;DHT22;12379;49.820;8.648;2023-04-01T20:46:54;10.50;99.90
24250;DHT22;12379;49.820;8.648;2023-04-01T20:49:41;10.40;99.90
24250;DHT22;12379;49.820;8.648;2023-04-01T20:52:17;10.50;99.90
24250;DHT22;12379;49.820;8.648;2023-04-01T20:55:18;10.50;99.90
24250;DHT22;12379;49.820;8.648;2023-04-01T21:09:19;10.40;99.90
24250;DHT22;12379;49.820;8.648;2023-04-01T21:18:10;10.40;99.90
24250;DHT22;12379;49.820;8.648;2023-04-01T21:34:28;10.30;99.90
24250;DHT22;12379;49.820;8.648;2023-04-01T21:42:32;10.40;99.90
24250;DHT22;12379;49.820;8.648;2023-04-01T21:48:37;10.40;99.90
24250;DHT22;12379;49.820;8.648;2023-04-01T22:05:33;10.30;99.90
24250;DHT22;12379;49.820;8.648;2023-04-01T22:11:03;10.30;99.90
24250;DHT22;12379;49.820;8.648;2023-04-01T22:13:45;10.40;99.90
24250;DHT22;12379;49.820;8.648;2023-04-01T22:19:24;10.40;99.90
24250;DHT22;12379;49.820;8.648;2023-04-01T22:22:01;10.40;99.90
24250;DHT22;12379;49.820;8.648;2023-04-01T22:27:07;10.40;99.90
24250;DHT22;12379;49.820;8.648;2023-04-01T22:32:19;10.20;99.90
24250;DHT22;12379;49.820;8.648;2023-04-01T22:34:51;10.30;99.90
24250;DHT22;12379;49.820;8.648;2023-04-01T22:37:40;10.30;99.90
24250;DHT22;12379;49.820;8.648;2023-04-01T22:43:03;10.30;99.90
24250;DHT22;12379;49.820;8.648;2023-04-01T22:49:07;10.30;99.90
24250;DHT22;12379;49.820;8.648;2023-04-01T22:52:16;10.20;99.90
24250;DHT22;12379;49.820;8.648;2023-04-01T22:54:48;10.10;99.90
24250;DHT22;12379;49.820;8.648;2023-04-01T22:58:18;10.10;99.90
24250;DHT22;12379;49.820;8.648;2023-04-01T23:00:39;10.10;99.90
24250;DHT22;12379;49.820;8.648;2023-04-01T23:05:54;9.90;99.90
24250;DHT22;12379;49.820;8.648;2023-04-01T23:11:10;9.50;99.90
24250;DHT22;12379;49.820;8.648;2023-04-01T23:13:43;9.40;99.90
24250;DHT22;12379;49.820;8.648;2023-04-01T23:16:11;9.60;99.90
24250;DHT22;12379;49.820;8.648;2023-04-01T23:18:57;9.50;99.90
24250;DHT22;12379;49.820;8.648;2023-04-01T23:21:59;9.50;99.90
24250;DHT22;12379;49.820;8.648;2023-04-01T23:24:32;9.60;99.90
24250;DHT22;12379;49.820;8.648;2023-04-01T23:27:05;9.60;99.90
24250;DHT22;12379;49.820;8.648;2023-04-01T23:29:36;9.50;99.90
24250;DHT22;12379;49.820;8.648;2023-04-01T23:32:05;9.40;99.90
24250;DHT22;12379;49.820;8.648;2023-04-01T23:34:38;9.40;99.90
24250;DHT22;12379;49.820;8.648;2023-04-01T23:37:11;9.50;99.90
24250;DHT22;12379;49.820;8.648;2023-04-01T23:39:45;9.40;99.90
24250;DHT22;12379;49.820;8.648;2023-04-01T23:44:37;9.40;99.90
24250;DHT22;12379;49.820;8.648;2023-04-01T23:47:03;9.40;99.90
24250;DHT22;12379;49.820;8.648;2023-04-01T23:49:37;9.30;99.90
24250;DHT22;12379;49.820;8.648;2023-04-01T23:54:54;9.40;99.90
24250;DHT22;12379;49.820;8.648;2023-04-01T23:57:30;9.30;99.90
